sensor_id;sensor_type;location;lat;lon;timestamp;P1;durP1;ratioP1;P2;durP2;ratioP2
26756;SDS011;23848;49.798;10.228;2022-08-19T00:01:43;20.40;;;15.63;;
26756;SDS011;23848;49.798;10.228;2022-08-19T00:04:19;21.80;;;15.48;;
26756;SDS011;23848;49.798;10.228;2022-08-19T00:06:48;21.52;;;15.15;;
26756;SDS011;23848;49.798;10.228;2022-08-19T00:09:17;22.17;;;15.85;;
26756;SDS011;23848;49.798;10.228;2022-08-19T00:11:48;22.33;;;15.00;;
26756;SDS011;23848;49.798;10.228;2022-08-19T00:14:16;22.27;;;14.95;;
26756;SDS011;23848;49.798;10.228;2022-08-19T00:16:46;22.67;;;14.85;;
26756;SDS011;23848;49.798;10.228;2022-08-19T00:19:15;20.05;;;14.20;;
26756;SDS011;23848;49.798;10.228;2022-08-19T00:21:44;23.08;;;14.60;;
26756;SDS011;23848;49.798;10.228;2022-08-19T00:24:12;22.15;;;15.02;;
26756;SDS011;23848;49.798;10.228;2022-08-19T00:26:41;19.77;;;13.98;;
26756;SDS011;23848;49.798;10.228;2022-08-19T00:29:12;23.70;;;15.60;;
26756;SDS011;23848;49.798;10.228;2022-08-19T00:31:41;23.45;;;15.45;;
26756;SDS011;23848;49.798;10.228;2022-08-19T00:34:10;22.88;;;13.95;;
26756;SDS011;23848;49.798;10.228;2022-08-19T00:36:39;20.60;;;14.43;;
26756;SDS011;23848;49.798;10.228;2022-08-19T00:39:07;19.65;;;13.98;;
26756;SDS011;23848;49.798;10.228;2022-08-19T00:41:35;20.20;;;14.30;;
26756;SDS011;23848;49.798;10.228;2022-08-19T00:44:05;21.25;;;14.38;;
26756;SDS011;23848;49.798;10.228;2022-08-19T00:46:36;23.17;;;14.65;;
26756;SDS011;23848;49.798;10.228;2022-08-19T00:49:06;23.95;;;15.13;;
26756;SDS011;23848;49.798;10.228;2022-08-19T00:51:37;22.00;;;14.68;;
26756;SDS011;23848;49.798;10.228;2022-08-19T00:54:05;22.23;;;14.65;;
26756;SDS011;23848;49.798;10.228;2022-08-19T00:56:35;20.63;;;14.95;;
26756;SDS011;23848;49.798;10.228;2022-08-19T00:59:06;22.35;;;14.65;;
26756;SDS011;23848;49.798;10.228;2022-08-19T01:01:37;21.92;;;15.80;;
26756;SDS011;23848;49.798;10.228;2022-08-19T01:04:05;22.60;;;15.77;;
26756;SDS011;23848;49.798;10.228;2022-08-19T01:06:34;20.98;;;14.57;;
26756;SDS011;23848;49.798;10.228;2022-08-19T01:09:03;25.65;;;15.88;;
26756;SDS011;23848;49.798;10.228;2022-08-19T01:11:33;19.10;;;13.85;;
26756;SDS011;23848;49.798;10.228;2022-08-19T01:14:02;22.77;;;14.57;;
26756;SDS011;23848;49.798;10.228;2022-08-19T01:16:31;19.88;;;14.15;;
26756;SDS011;23848;49.798;10.228;2022-08-19T01:19:01;22.55;;;14.50;;
26756;SDS011;23848;49.798;10.228;2022-08-19T01:21:31;21.55;;;14.00;;
26756;SDS011;23848;49.798;10.228;2022-08-19T01:24:01;20.48;;;14.10;;
26756;SDS011;23848;49.798;10.228;2022-08-19T01:26:30;20.65;;;14.70;;
26756;SDS011;23848;49.798;10.228;2022-08-19T01:28:58;20.08;;;14.43;;
26756;SDS011;23848;49.798;10.228;2022-08-19T01:31:30;23.60;;;14.68;;
26756;SDS011;23848;49.798;10.228;2022-08-19T01:33:59;19.58;;;14.63;;
26756;SDS011;23848;49.798;10.228;2022-08-19T01:36:29;20.48;;;13.50;;
26756;SDS011;23848;49.798;10.228;2022-08-19T01:38:58;20.75;;;15.15;;
26756;SDS011;23848;49.798;10.228;2022-08-19T01:41:28;21.02;;;13.90;;
26756;SDS011;23848;49.798;10.228;2022-08-19T01:43:56;20.80;;;14.52;;
26756;SDS011;23848;49.798;10.228;2022-08-19T01:46:44;20.70;;;14.52;;
26756;SDS011;23848;49.798;10.228;2022-08-19T01:49:13;22.10;;;14.65;;
26756;SDS011;23848;49.798;10.228;2022-08-19T01:51:42;21.67;;;15.20;;
26756;SDS011;23848;49.798;10.228;2022-08-19T01:54:11;20.58;;;15.02;;
26756;SDS011;23848;49.798;10.228;2022-08-19T01:56:54;20.70;;;14.32;;
26756;SDS011;23848;49.798;10.228;2022-08-19T01:59:23;20.00;;;14.35;;
26756;SDS011;23848;49.798;10.228;2022-08-19T02:01:52;18.95;;;13.85;;
26756;SDS011;23848;49.798;10.228;2022-08-19T02:04:20;21.48;;;14.13;;
26756;SDS011;23848;49.798;10.228;2022-08-19T02:06:49;19.55;;;14.38;;
26756;SDS011;23848;49.798;10.228;2022-08-19T02:09:17;21.92;;;14.80;;
26756;SDS011;23848;49.798;10.228;2022-08-19T02:11:46;23.48;;;15.90;;
26756;SDS011;23848;49.798;10.228;2022-08-19T02:14:15;20.52;;;14.60;;
26756;SDS011;23848;49.798;10.228;2022-08-19T02:16:44;23.30;;;15.52;;
26756;SDS011;23848;49.798;10.228;2022-08-19T02:19:13;22.23;;;16.10;;
26756;SDS011;23848;49.798;10.228;2022-08-19T02:21:41;23.00;;;15.52;;
26756;SDS011;23848;49.798;10.228;2022-08-19T02:24:09;23.20;;;14.95;;
26756;SDS011;23848;49.798;10.228;2022-08-19T02:26:38;22.50;;;15.23;;
26756;SDS011;23848;49.798;10.228;2022-08-19T02:29:07;19.52;;;15.25;;
26756;SDS011;23848;49.798;10.228;2022-08-19T02:31:36;22.45;;;15.13;;
26756;SDS011;23848;49.798;10.228;2022-08-19T02:34:05;21.90;;;15.07;;
26756;SDS011;23848;49.798;10.228;2022-08-19T02:36:33;22.30;;;15.63;;
26756;SDS011;23848;49.798;10.228;2022-08-19T02:39:07;19.73;;;14.27;;
26756;SDS011;23848;49.798;10.228;2022-08-19T02:41:35;22.13;;;14.93;;
26756;SDS011;23848;49.798;10.228;2022-08-19T02:44:04;23.10;;;15.73;;
26756;SDS011;23848;49.798;10.228;2022-08-19T02:46:54;21.80;;;14.85;;
26756;SDS011;23848;49.798;10.228;2022-08-19T02:49:22;22.15;;;15.25;;
26756;SDS011;23848;49.798;10.228;2022-08-19T02:51:50;24.58;;;15.50;;
26756;SDS011;23848;49.798;10.228;2022-08-19T02:54:20;20.95;;;15.13;;
26756;SDS011;23848;49.798;10.228;2022-08-19T02:56:48;22.83;;;15.32;;
26756;SDS011;23848;49.798;10.228;2022-08-19T02:59:17;23.20;;;15.10;;
26756;SDS011;23848;49.798;10.228;2022-08-19T03:01:48;20.40;;;14.55;;
26756;SDS011;23848;49.798;10.228;2022-08-19T03:04:18;21.27;;;15.50;;
26756;SDS011;23848;49.798;10.228;2022-08-19T03:06:47;20.90;;;15.48;;
26756;SDS011;23848;49.798;10.228;2022-08-19T03:09:16;21.45;;;15.50;;
26756;SDS011;23848;49.798;10.228;2022-08-19T03:11:45;23.10;;;15.73;;
26756;SDS011;23848;49.798;10.228;2022-08-19T03:14:18;23.55;;;14.98;;
26756;SDS011;23848;49.798;10.228;2022-08-19T03:16:47;21.45;;;14.93;;
26756;SDS011;23848;49.798;10.228;2022-08-19T03:19:16;23.77;;;16.17;;
26756;SDS011;23848;49.798;10.228;2022-08-19T03:21:46;21.83;;;14.73;;
26756;SDS011;23848;49.798;10.228;2022-08-19T03:24:15;19.98;;;14.40;;
26756;SDS011;23848;49.798;10.228;2022-08-19T03:26:46;23.00;;;14.23;;
26756;SDS011;23848;49.798;10.228;2022-08-19T03:29:15;24.30;;;16.55;;
26756;SDS011;23848;49.798;10.228;2022-08-19T03:31:56;22.73;;;15.60;;
26756;SDS011;23848;49.798;10.228;2022-08-19T03:34:27;22.50;;;16.35;;
26756;SDS011;23848;49.798;10.228;2022-08-19T03:36:58;21.25;;;15.45;;
26756;SDS011;23848;49.798;10.228;2022-08-19T03:39:27;22.92;;;15.70;;
26756;SDS011;23848;49.798;10.228;2022-08-19T03:41:56;23.23;;;16.55;;
26756;SDS011;23848;49.798;10.228;2022-08-19T03:44:46;24.83;;;16.52;;
26756;SDS011;23848;49.798;10.228;2022-08-19T03:47:14;20.45;;;15.00;;
26756;SDS011;23848;49.798;10.228;2022-08-19T03:49:43;22.38;;;15.85;;
26756;SDS011;23848;49.798;10.228;2022-08-19T03:52:13;25.90;;;17.40;;
26756;SDS011;23848;49.798;10.228;2022-08-19T03:54:42;22.48;;;16.38;;
26756;SDS011;23848;49.798;10.228;2022-08-19T03:57:11;23.55;;;15.57;;
26756;SDS011;23848;49.798;10.228;2022-08-19T03:59:39;28.58;;;16.60;;
26756;SDS011;23848;49.798;10.228;2022-08-19T04:02:09;23.20;;;15.82;;
26756;SDS011;23848;49.798;10.228;2022-08-19T04:04:38;23.73;;;16.08;;
26756;SDS011;23848;49.798;10.228;2022-08-19T04:07:06;22.65;;;15.43;;
26756;SDS011;23848;49.798;10.228;2022-08-19T04:09:37;23.98;;;16.33;;
26756;SDS011;23848;49.798;10.228;2022-08-19T04:12:05;21.52;;;15.25;;
26756;SDS011;23848;49.798;10.228;2022-08-19T04:14:34;22.33;;;14.82;;
26756;SDS011;23848;49.798;10.228;2022-08-19T04:17:03;22.85;;;15.98;;
26756;SDS011;23848;49.798;10.228;2022-08-19T04:19:32;21.40;;;15.48;;
26756;SDS011;23848;49.798;10.228;2022-08-19T04:22:00;21.13;;;14.70;;
26756;SDS011;23848;49.798;10.228;2022-08-19T04:24:28;22.05;;;14.90;;
26756;SDS011;23848;49.798;10.228;2022-08-19T04:26:59;22.65;;;15.48;;
26756;SDS011;23848;49.798;10.228;2022-08-19T04:29:29;20.33;;;14.93;;
26756;SDS011;23848;49.798;10.228;2022-08-19T04:31:57;21.95;;;15.27;;
26756;SDS011;23848;49.798;10.228;2022-08-19T04:34:35;23.90;;;16.10;;
26756;SDS011;23848;49.798;10.228;2022-08-19T04:37:23;21.80;;;14.85;;
26756;SDS011;23848;49.798;10.228;2022-08-19T04:39:57;22.05;;;15.52;;
26756;SDS011;23848;49.798;10.228;2022-08-19T04:42:55;23.05;;;15.68;;
26756;SDS011;23848;49.798;10.228;2022-08-19T04:45:24;23.90;;;16.27;;
26756;SDS011;23848;49.798;10.228;2022-08-19T04:47:54;21.10;;;15.05;;
26756;SDS011;23848;49.798;10.228;2022-08-19T04:50:43;20.60;;;14.00;;
26756;SDS011;23848;49.798;10.228;2022-08-19T04:53:11;20.00;;;14.82;;
26756;SDS011;23848;49.798;10.228;2022-08-19T04:55:40;22.50;;;15.73;;
26756;SDS011;23848;49.798;10.228;2022-08-19T04:58:10;21.00;;;14.98;;
26756;SDS011;23848;49.798;10.228;2022-08-19T05:00:39;23.48;;;15.95;;
26756;SDS011;23848;49.798;10.228;2022-08-19T05:03:08;20.20;;;14.77;;
26756;SDS011;23848;49.798;10.228;2022-08-19T05:05:38;23.73;;;15.48;;
26756;SDS011;23848;49.798;10.228;2022-08-19T05:08:10;23.10;;;14.95;;
26756;SDS011;23848;49.798;10.228;2022-08-19T05:10:40;20.83;;;15.13;;
26756;SDS011;23848;49.798;10.228;2022-08-19T05:13:09;23.05;;;15.10;;
26756;SDS011;23848;49.798;10.228;2022-08-19T05:15:38;21.38;;;15.20;;
26756;SDS011;23848;49.798;10.228;2022-08-19T05:18:07;25.48;;;15.52;;
26756;SDS011;23848;49.798;10.228;2022-08-19T05:20:53;25.10;;;16.38;;
26756;SDS011;23848;49.798;10.228;2022-08-19T05:23:39;21.20;;;15.05;;
26756;SDS011;23848;49.798;10.228;2022-08-19T05:26:08;21.50;;;15.43;;
26756;SDS011;23848;49.798;10.228;2022-08-19T05:28:37;21.10;;;15.38;;
26756;SDS011;23848;49.798;10.228;2022-08-19T05:31:06;26.02;;;16.23;;
26756;SDS011;23848;49.798;10.228;2022-08-19T05:33:35;21.05;;;15.13;;
26756;SDS011;23848;49.798;10.228;2022-08-19T05:36:03;23.42;;;14.93;;
26756;SDS011;23848;49.798;10.228;2022-08-19T05:38:33;24.13;;;16.38;;
26756;SDS011;23848;49.798;10.228;2022-08-19T05:41:05;21.80;;;15.43;;
26756;SDS011;23848;49.798;10.228;2022-08-19T05:43:34;23.55;;;15.52;;
26756;SDS011;23848;49.798;10.228;2022-08-19T05:46:03;22.02;;;15.35;;
26756;SDS011;23848;49.798;10.228;2022-08-19T05:48:33;19.80;;;14.45;;
26756;SDS011;23848;49.798;10.228;2022-08-19T05:51:03;19.05;;;14.50;;
26756;SDS011;23848;49.798;10.228;2022-08-19T05:53:32;18.05;;;14.13;;
26756;SDS011;23848;49.798;10.228;2022-08-19T05:56:03;20.75;;;14.40;;
26756;SDS011;23848;49.798;10.228;2022-08-19T05:58:31;18.08;;;13.77;;
26756;SDS011;23848;49.798;10.228;2022-08-19T06:01:00;18.70;;;13.68;;
26756;SDS011;23848;49.798;10.228;2022-08-19T06:03:31;18.67;;;14.15;;
26756;SDS011;23848;49.798;10.228;2022-08-19T06:06:02;18.00;;;13.35;;
26756;SDS011;23848;49.798;10.228;2022-08-19T06:08:30;16.20;;;13.35;;
26756;SDS011;23848;49.798;10.228;2022-08-19T06:11:13;17.92;;;13.18;;
26756;SDS011;23848;49.798;10.228;2022-08-19T06:13:42;18.20;;;13.45;;
26756;SDS011;23848;49.798;10.228;2022-08-19T06:16:11;19.50;;;13.43;;
26756;SDS011;23848;49.798;10.228;2022-08-19T06:18:39;17.02;;;13.15;;
26756;SDS011;23848;49.798;10.228;2022-08-19T06:21:11;16.13;;;12.13;;
26756;SDS011;23848;49.798;10.228;2022-08-19T06:23:40;16.23;;;12.63;;
26756;SDS011;23848;49.798;10.228;2022-08-19T06:26:11;17.60;;;12.50;;
26756;SDS011;23848;49.798;10.228;2022-08-19T06:28:39;17.60;;;12.32;;
26756;SDS011;23848;49.798;10.228;2022-08-19T06:31:09;16.73;;;12.80;;
26756;SDS011;23848;49.798;10.228;2022-08-19T06:33:40;17.27;;;11.45;;
26756;SDS011;23848;49.798;10.228;2022-08-19T06:36:16;17.20;;;12.30;;
26756;SDS011;23848;49.798;10.228;2022-08-19T06:38:45;15.40;;;11.00;;
26756;SDS011;23848;49.798;10.228;2022-08-19T06:41:13;17.30;;;12.18;;
26756;SDS011;23848;49.798;10.228;2022-08-19T06:43:41;16.38;;;11.95;;
26756;SDS011;23848;49.798;10.228;2022-08-19T06:46:11;14.85;;;11.45;;
26756;SDS011;23848;49.798;10.228;2022-08-19T06:48:40;16.65;;;12.50;;
26756;SDS011;23848;49.798;10.228;2022-08-19T06:51:11;12.57;;;10.43;;
26756;SDS011;23848;49.798;10.228;2022-08-19T06:53:46;14.60;;;11.20;;
26756;SDS011;23848;49.798;10.228;2022-08-19T06:56:20;14.82;;;11.55;;
26756;SDS011;23848;49.798;10.228;2022-08-19T06:58:50;15.10;;;11.13;;
26756;SDS011;23848;49.798;10.228;2022-08-19T07:01:20;15.73;;;11.55;;
26756;SDS011;23848;49.798;10.228;2022-08-19T07:03:48;15.50;;;11.73;;
26756;SDS011;23848;49.798;10.228;2022-08-19T07:06:17;14.88;;;11.70;;
26756;SDS011;23848;49.798;10.228;2022-08-19T07:09:09;15.80;;;11.75;;
26756;SDS011;23848;49.798;10.228;2022-08-19T07:11:38;14.40;;;11.70;;
26756;SDS011;23848;49.798;10.228;2022-08-19T07:14:09;15.88;;;11.75;;
26756;SDS011;23848;49.798;10.228;2022-08-19T07:16:45;14.13;;;10.63;;
26756;SDS011;23848;49.798;10.228;2022-08-19T07:19:14;15.00;;;11.60;;
26756;SDS011;23848;49.798;10.228;2022-08-19T07:21:44;16.10;;;11.68;;
26756;SDS011;23848;49.798;10.228;2022-08-19T07:24:14;14.45;;;11.50;;
26756;SDS011;23848;49.798;10.228;2022-08-19T07:26:43;16.80;;;12.23;;
26756;SDS011;23848;49.798;10.228;2022-08-19T07:29:17;14.57;;;11.48;;
26756;SDS011;23848;49.798;10.228;2022-08-19T07:31:49;15.87;;;11.37;;
26756;SDS011;23848;49.798;10.228;2022-08-19T07:34:19;17.65;;;12.45;;
26756;SDS011;23848;49.798;10.228;2022-08-19T07:36:47;16.83;;;12.48;;
26756;SDS011;23848;49.798;10.228;2022-08-19T07:39:18;14.65;;;10.98;;
26756;SDS011;23848;49.798;10.228;2022-08-19T07:41:47;15.65;;;12.40;;
26756;SDS011;23848;49.798;10.228;2022-08-19T07:44:17;16.95;;;12.60;;
26756;SDS011;23848;49.798;10.228;2022-08-19T07:46:48;16.42;;;12.18;;
26756;SDS011;23848;49.798;10.228;2022-08-19T07:49:18;14.95;;;11.43;;
26756;SDS011;23848;49.798;10.228;2022-08-19T07:51:48;16.10;;;12.52;;
26756;SDS011;23848;49.798;10.228;2022-08-19T07:54:18;15.27;;;11.70;;
26756;SDS011;23848;49.798;10.228;2022-08-19T07:56:47;15.30;;;11.85;;
26756;SDS011;23848;49.798;10.228;2022-08-19T07:59:18;15.63;;;12.63;;
26756;SDS011;23848;49.798;10.228;2022-08-19T08:01:46;14.30;;;11.57;;
26756;SDS011;23848;49.798;10.228;2022-08-19T08:04:16;15.00;;;12.10;;
26756;SDS011;23848;49.798;10.228;2022-08-19T08:07:03;16.10;;;11.63;;
26756;SDS011;23848;49.798;10.228;2022-08-19T08:09:50;17.63;;;12.75;;
26756;SDS011;23848;49.798;10.228;2022-08-19T08:12:24;13.98;;;11.65;;
26756;SDS011;23848;49.798;10.228;2022-08-19T08:15:05;14.65;;;11.77;;
26756;SDS011;23848;49.798;10.228;2022-08-19T08:17:38;15.30;;;11.85;;
26756;SDS011;23848;49.798;10.228;2022-08-19T08:20:16;15.55;;;12.55;;
26756;SDS011;23848;49.798;10.228;2022-08-19T08:22:45;14.32;;;11.68;;
26756;SDS011;23848;49.798;10.228;2022-08-19T08:25:34;14.90;;;11.48;;
26756;SDS011;23848;49.798;10.228;2022-08-19T08:28:03;14.75;;;11.68;;
26756;SDS011;23848;49.798;10.228;2022-08-19T08:30:31;14.55;;;12.18;;
26756;SDS011;23848;49.798;10.228;2022-08-19T08:33:02;15.27;;;12.35;;
26756;SDS011;23848;49.798;10.228;2022-08-19T08:35:30;15.07;;;12.48;;
26756;SDS011;23848;49.798;10.228;2022-08-19T08:37:59;14.98;;;11.98;;
26756;SDS011;23848;49.798;10.228;2022-08-19T08:40:30;13.82;;;11.95;;
26756;SDS011;23848;49.798;10.228;2022-08-19T08:43:03;13.57;;;11.70;;
26756;SDS011;23848;49.798;10.228;2022-08-19T08:45:38;15.45;;;12.55;;
26756;SDS011;23848;49.798;10.228;2022-08-19T08:48:17;18.55;;;12.40;;
26756;SDS011;23848;49.798;10.228;2022-08-19T08:50:49;17.13;;;12.15;;
26756;SDS011;23848;49.798;10.228;2022-08-19T08:53:19;15.25;;;12.57;;
26756;SDS011;23848;49.798;10.228;2022-08-19T08:55:55;15.57;;;12.60;;
26756;SDS011;23848;49.798;10.228;2022-08-19T08:58:26;16.00;;;12.50;;
26756;SDS011;23848;49.798;10.228;2022-08-19T09:00:57;16.00;;;12.77;;
26756;SDS011;23848;49.798;10.228;2022-08-19T09:03:26;17.38;;;13.55;;
26756;SDS011;23848;49.798;10.228;2022-08-19T09:05:59;15.63;;;12.68;;
26756;SDS011;23848;49.798;10.228;2022-08-19T09:08:33;17.90;;;13.93;;
26756;SDS011;23848;49.798;10.228;2022-08-19T09:11:06;17.80;;;14.15;;
26756;SDS011;23848;49.798;10.228;2022-08-19T09:13:39;16.58;;;14.48;;
26756;SDS011;23848;49.798;10.228;2022-08-19T09:16:12;17.75;;;14.70;;
26756;SDS011;23848;49.798;10.228;2022-08-19T09:18:42;17.80;;;14.60;;
26756;SDS011;23848;49.798;10.228;2022-08-19T09:21:12;17.33;;;13.90;;
26756;SDS011;23848;49.798;10.228;2022-08-19T09:23:42;17.63;;;14.50;;
26756;SDS011;23848;49.798;10.228;2022-08-19T09:26:11;17.70;;;14.15;;
26756;SDS011;23848;49.798;10.228;2022-08-19T09:28:44;19.52;;;14.90;;
26756;SDS011;23848;49.798;10.228;2022-08-19T09:31:15;18.83;;;14.68;;
26756;SDS011;23848;49.798;10.228;2022-08-19T09:33:43;20.63;;;15.85;;
26756;SDS011;23848;49.798;10.228;2022-08-19T09:36:13;19.33;;;15.75;;
26756;SDS011;23848;49.798;10.228;2022-08-19T09:39:00;18.95;;;15.48;;
26756;SDS011;23848;49.798;10.228;2022-08-19T09:41:28;20.52;;;15.90;;
26756;SDS011;23848;49.798;10.228;2022-08-19T09:43:58;18.58;;;15.05;;
26756;SDS011;23848;49.798;10.228;2022-08-19T09:46:28;17.73;;;15.23;;
26756;SDS011;23848;49.798;10.228;2022-08-19T09:48:57;19.90;;;15.25;;
26756;SDS011;23848;49.798;10.228;2022-08-19T09:51:31;20.63;;;15.70;;
26756;SDS011;23848;49.798;10.228;2022-08-19T09:54:00;16.27;;;14.23;;
26756;SDS011;23848;49.798;10.228;2022-08-19T09:56:31;19.45;;;14.85;;
26756;SDS011;23848;49.798;10.228;2022-08-19T09:59:01;17.70;;;15.32;;
26756;SDS011;23848;49.798;10.228;2022-08-19T10:01:30;19.00;;;14.98;;
26756;SDS011;23848;49.798;10.228;2022-08-19T10:03:59;21.75;;;15.85;;
26756;SDS011;23848;49.798;10.228;2022-08-19T10:06:45;17.48;;;14.48;;
26756;SDS011;23848;49.798;10.228;2022-08-19T10:09:18;17.55;;;13.80;;
26756;SDS011;23848;49.798;10.228;2022-08-19T10:11:59;16.13;;;13.20;;
26756;SDS011;23848;49.798;10.228;2022-08-19T10:14:29;15.60;;;12.38;;
26756;SDS011;23848;49.798;10.228;2022-08-19T10:16:59;16.52;;;12.80;;
26756;SDS011;23848;49.798;10.228;2022-08-19T10:19:45;14.35;;;12.07;;
26756;SDS011;23848;49.798;10.228;2022-08-19T10:22:21;12.85;;;11.45;;
26756;SDS011;23848;49.798;10.228;2022-08-19T10:24:51;14.98;;;11.63;;
26756;SDS011;23848;49.798;10.228;2022-08-19T10:27:19;14.18;;;11.98;;
26756;SDS011;23848;49.798;10.228;2022-08-19T10:29:49;13.73;;;11.73;;
26756;SDS011;23848;49.798;10.228;2022-08-19T10:32:20;14.25;;;12.25;;
26756;SDS011;23848;49.798;10.228;2022-08-19T10:34:59;13.57;;;11.75;;
26756;SDS011;23848;49.798;10.228;2022-08-19T10:37:31;13.88;;;12.20;;
26756;SDS011;23848;49.798;10.228;2022-08-19T10:40:00;15.18;;;12.10;;
26756;SDS011;23848;49.798;10.228;2022-08-19T10:42:29;16.02;;;12.57;;
26756;SDS011;23848;49.798;10.228;2022-08-19T10:44:59;14.65;;;12.55;;
26756;SDS011;23848;49.798;10.228;2022-08-19T10:47:30;15.45;;;13.05;;
26756;SDS011;23848;49.798;10.228;2022-08-19T10:49:58;15.82;;;13.10;;
26756;SDS011;23848;49.798;10.228;2022-08-19T10:52:44;15.65;;;12.70;;
26756;SDS011;23848;49.798;10.228;2022-08-19T10:55:16;17.58;;;12.52;;
26756;SDS011;23848;49.798;10.228;2022-08-19T10:58:02;17.58;;;13.82;;
26756;SDS011;23848;49.798;10.228;2022-08-19T11:00:33;17.13;;;12.52;;
26756;SDS011;23848;49.798;10.228;2022-08-19T11:03:02;14.07;;;12.15;;
26756;SDS011;23848;49.798;10.228;2022-08-19T11:05:31;14.55;;;12.20;;
26756;SDS011;23848;49.798;10.228;2022-08-19T11:08:05;15.23;;;12.45;;
26756;SDS011;23848;49.798;10.228;2022-08-19T11:10:49;15.27;;;12.43;;
26756;SDS011;23848;49.798;10.228;2022-08-19T11:13:17;16.17;;;13.70;;
26756;SDS011;23848;49.798;10.228;2022-08-19T11:15:47;16.58;;;13.20;;
26756;SDS011;23848;49.798;10.228;2022-08-19T11:18:15;15.95;;;13.00;;
26756;SDS011;23848;49.798;10.228;2022-08-19T11:20:44;16.77;;;12.32;;
26756;SDS011;23848;49.798;10.228;2022-08-19T11:23:12;14.70;;;12.85;;
26756;SDS011;23848;49.798;10.228;2022-08-19T11:25:40;16.33;;;12.15;;
26756;SDS011;23848;49.798;10.228;2022-08-19T11:28:09;17.02;;;13.35;;
26756;SDS011;23848;49.798;10.228;2022-08-19T11:30:37;16.13;;;13.30;;
26756;SDS011;23848;49.798;10.228;2022-08-19T11:33:07;16.73;;;13.73;;
26756;SDS011;23848;49.798;10.228;2022-08-19T11:35:38;15.57;;;12.90;;
26756;SDS011;23848;49.798;10.228;2022-08-19T11:38:07;15.70;;;13.25;;
26756;SDS011;23848;49.798;10.228;2022-08-19T11:40:35;16.45;;;12.25;;
26756;SDS011;23848;49.798;10.228;2022-08-19T11:43:04;15.80;;;12.52;;
26756;SDS011;23848;49.798;10.228;2022-08-19T11:45:32;18.35;;;12.82;;
26756;SDS011;23848;49.798;10.228;2022-08-19T11:48:00;14.60;;;12.30;;
26756;SDS011;23848;49.798;10.228;2022-08-19T11:50:30;18.70;;;13.63;;
26756;SDS011;23848;49.798;10.228;2022-08-19T11:52:58;15.77;;;12.88;;
26756;SDS011;23848;49.798;10.228;2022-08-19T11:55:27;15.95;;;12.52;;
26756;SDS011;23848;49.798;10.228;2022-08-19T11:57:55;16.58;;;12.93;;
26756;SDS011;23848;49.798;10.228;2022-08-19T12:00:25;16.08;;;13.90;;
26756;SDS011;23848;49.798;10.228;2022-08-19T12:02:53;16.60;;;13.70;;
26756;SDS011;23848;49.798;10.228;2022-08-19T12:05:21;17.08;;;12.55;;
26756;SDS011;23848;49.798;10.228;2022-08-19T12:07:51;14.80;;;12.43;;
26756;SDS011;23848;49.798;10.228;2022-08-19T12:10:20;16.73;;;12.52;;
26756;SDS011;23848;49.798;10.228;2022-08-19T12:12:51;16.67;;;12.63;;
26756;SDS011;23848;49.798;10.228;2022-08-19T12:15:24;16.20;;;13.07;;
26756;SDS011;23848;49.798;10.228;2022-08-19T12:18:02;15.90;;;12.32;;
26756;SDS011;23848;49.798;10.228;2022-08-19T12:20:30;16.73;;;12.90;;
26756;SDS011;23848;49.798;10.228;2022-08-19T12:23:03;16.90;;;13.35;;
26756;SDS011;23848;49.798;10.228;2022-08-19T12:25:31;15.45;;;12.40;;
26756;SDS011;23848;49.798;10.228;2022-08-19T12:28:00;13.63;;;11.43;;
26756;SDS011;23848;49.798;10.228;2022-08-19T12:30:29;14.10;;;12.25;;
26756;SDS011;23848;49.798;10.228;2022-08-19T12:32:58;15.45;;;10.85;;
26756;SDS011;23848;49.798;10.228;2022-08-19T12:35:26;15.00;;;11.57;;
26756;SDS011;23848;49.798;10.228;2022-08-19T12:37:56;17.30;;;13.35;;
26756;SDS011;23848;49.798;10.228;2022-08-19T12:40:26;17.10;;;13.98;;
26756;SDS011;23848;49.798;10.228;2022-08-19T12:42:55;19.30;;;13.93;;
26756;SDS011;23848;49.798;10.228;2022-08-19T12:45:24;17.55;;;14.15;;
26756;SDS011;23848;49.798;10.228;2022-08-19T12:47:53;17.40;;;13.77;;
26756;SDS011;23848;49.798;10.228;2022-08-19T12:50:22;17.75;;;14.65;;
26756;SDS011;23848;49.798;10.228;2022-08-19T12:52:50;18.90;;;14.57;;
26756;SDS011;23848;49.798;10.228;2022-08-19T12:55:19;20.92;;;14.15;;
26756;SDS011;23848;49.798;10.228;2022-08-19T12:57:48;16.92;;;13.85;;
26756;SDS011;23848;49.798;10.228;2022-08-19T13:00:18;21.02;;;13.75;;
26756;SDS011;23848;49.798;10.228;2022-08-19T13:02:47;17.48;;;14.75;;
26756;SDS011;23848;49.798;10.228;2022-08-19T13:05:17;19.42;;;14.50;;
26756;SDS011;23848;49.798;10.228;2022-08-19T13:07:47;18.65;;;13.88;;
26756;SDS011;23848;49.798;10.228;2022-08-19T13:10:16;16.77;;;13.57;;
26756;SDS011;23848;49.798;10.228;2022-08-19T13:12:46;14.55;;;12.57;;
26756;SDS011;23848;49.798;10.228;2022-08-19T13:15:16;19.10;;;12.88;;
26756;SDS011;23848;49.798;10.228;2022-08-19T13:17:50;19.55;;;13.50;;
26756;SDS011;23848;49.798;10.228;2022-08-19T13:20:20;17.77;;;13.43;;
26756;SDS011;23848;49.798;10.228;2022-08-19T13:22:48;16.58;;;12.85;;
26756;SDS011;23848;49.798;10.228;2022-08-19T13:25:17;20.73;;;13.07;;
26756;SDS011;23848;49.798;10.228;2022-08-19T13:27:46;16.73;;;12.68;;
26756;SDS011;23848;49.798;10.228;2022-08-19T13:30:17;15.23;;;12.63;;
26756;SDS011;23848;49.798;10.228;2022-08-19T13:33:04;18.45;;;13.85;;
26756;SDS011;23848;49.798;10.228;2022-08-19T13:35:43;17.65;;;12.45;;
26756;SDS011;23848;49.798;10.228;2022-08-19T13:38:13;16.55;;;12.43;;
26756;SDS011;23848;49.798;10.228;2022-08-19T13:40:42;16.33;;;12.85;;
26756;SDS011;23848;49.798;10.228;2022-08-19T13:43:11;14.98;;;11.63;;
26756;SDS011;23848;49.798;10.228;2022-08-19T13:45:50;16.75;;;12.05;;
26756;SDS011;23848;49.798;10.228;2022-08-19T13:48:21;15.88;;;12.23;;
26756;SDS011;23848;49.798;10.228;2022-08-19T13:50:49;17.23;;;12.70;;
26756;SDS011;23848;49.798;10.228;2022-08-19T13:53:18;17.02;;;13.15;;
26756;SDS011;23848;49.798;10.228;2022-08-19T13:55:46;15.07;;;12.40;;
26756;SDS011;23848;49.798;10.228;2022-08-19T13:58:16;16.40;;;12.15;;
26756;SDS011;23848;49.798;10.228;2022-08-19T14:00:45;16.85;;;12.70;;
26756;SDS011;23848;49.798;10.228;2022-08-19T14:03:16;15.93;;;12.57;;
26756;SDS011;23848;49.798;10.228;2022-08-19T14:05:44;14.48;;;12.07;;
26756;SDS011;23848;49.798;10.228;2022-08-19T14:08:13;13.45;;;11.32;;
26756;SDS011;23848;49.798;10.228;2022-08-19T14:10:41;14.15;;;11.82;;
26756;SDS011;23848;49.798;10.228;2022-08-19T14:13:12;13.50;;;11.68;;
26756;SDS011;23848;49.798;10.228;2022-08-19T14:15:41;12.38;;;8.68;;
26756;SDS011;23848;49.798;10.228;2022-08-19T14:18:09;10.60;;;8.70;;
26756;SDS011;23848;49.798;10.228;2022-08-19T14:20:39;11.25;;;8.52;;
26756;SDS011;23848;49.798;10.228;2022-08-19T14:23:07;10.50;;;7.72;;
26756;SDS011;23848;49.798;10.228;2022-08-19T14:25:36;12.45;;;8.32;;
26756;SDS011;23848;49.798;10.228;2022-08-19T14:28:05;9.75;;;7.95;;
26756;SDS011;23848;49.798;10.228;2022-08-19T14:30:34;10.13;;;7.45;;